createdAt,value
2022-12-16T00:04:23.616Z,78.16
2022-12-16T00:10:46.660Z,78.1
2022-12-16T00:17:06.702Z,78.37
2022-12-16T00:23:29.986Z,78.2
2022-12-16T00:29:49.724Z,77.88
2022-12-16T00:36:12.832Z,78.06
2022-12-16T00:42:32.649Z,78.01
2022-12-16T00:48:55.620Z,78.16
2022-12-16T00:55:15.600Z,78.52
2022-12-16T01:01:38.766Z,78.2
2022-12-16T01:07:58.730Z,78.1
2022-12-16T01:14:21.583Z,79.61
2022-12-16T01:20:41.623Z,79.33
2022-12-16T01:27:04.612Z,79.56
2022-12-16T01:33:24.719Z,78.81
2022-12-16T01:39:47.718Z,78.05
2022-12-16T01:46:07.646Z,78.58
2022-12-16T01:52:30.597Z,78.18
2022-12-16T01:58:50.591Z,77.98
2022-12-16T02:05:13.597Z,77.73
2022-12-16T02:11:33.632Z,77.68
2022-12-16T02:17:56.592Z,78.09
2022-12-16T02:24:16.604Z,77.87
2022-12-16T02:30:39.599Z,77.7
2022-12-16T02:36:59.587Z,78.28
2022-12-16T02:43:22.558Z,77.65
2022-12-16T02:49:42.633Z,77.51
2022-12-16T02:56:05.611Z,77.82
2022-12-16T03:02:25.771Z,77.85
2022-12-16T03:08:48.715Z,78.37
2022-12-16T03:15:08.591Z,77.8
2022-12-16T03:21:31.582Z,78.57
2022-12-16T03:27:51.591Z,78.68
2022-12-16T03:34:14.636Z,78.02
2022-12-16T03:40:34.616Z,77.91
2022-12-16T03:46:57.623Z,77.92
2022-12-16T03:53:17.568Z,78.33
2022-12-16T03:59:40.583Z,78.32
2022-12-16T04:23:39.561Z,76.66
2022-12-16T04:29:59.628Z,77.59
2022-12-16T04:36:22.592Z,77.81
2022-12-16T04:42:42.750Z,78.15
2022-12-16T04:49:05.581Z,77.74
2022-12-16T04:55:25.602Z,77.45
2022-12-16T05:01:48.801Z,77.62
2022-12-16T05:08:08.615Z,77.81
2022-12-16T05:14:31.678Z,77.67
2022-12-16T05:20:51.639Z,77.03
2022-12-16T05:27:14.573Z,77.07
2022-12-16T05:33:34.809Z,77.24
2022-12-16T05:39:57.596Z,77.92
2022-12-16T05:46:17.777Z,77.53
2022-12-16T05:52:40.637Z,77.5
2022-12-16T05:59:00.597Z,77.36
2022-12-16T06:05:23.571Z,77.38
2022-12-16T06:11:43.557Z,77.74
2022-12-16T06:18:06.723Z,78.57
2022-12-16T06:24:26.558Z,79.59
2022-12-16T06:30:49.703Z,80.45
2022-12-16T06:37:09.653Z,80.32
2022-12-16T06:43:33.023Z,80.83
2022-12-16T06:49:52.632Z,81.69
2022-12-16T06:56:15.673Z,81.73
2022-12-16T07:02:35.737Z,83.28
2022-12-16T07:08:58.568Z,83.75
2022-12-16T07:15:18.609Z,84.13
2022-12-16T07:21:41.601Z,84.62
2022-12-16T07:28:01.572Z,84.99
2022-12-16T07:34:24.596Z,85.15
2022-12-16T07:40:44.605Z,84.7
2022-12-16T07:47:07.622Z,84.69
2022-12-16T07:53:31.184Z,84.85
2022-12-16T07:59:50.554Z,85.11
2022-12-16T08:06:10.603Z,84.67
2022-12-16T08:12:33.624Z,84
2022-12-16T08:18:53.571Z,83.8
2022-12-16T08:25:16.581Z,84.44
2022-12-16T08:31:36.611Z,83.29
2022-12-16T08:37:59.575Z,83.33
2022-12-16T08:44:19.591Z,82.71
2022-12-16T08:50:42.676Z,82.34
2022-12-16T08:57:02.838Z,82.27
2022-12-16T09:03:25.789Z,82.12
2022-12-16T09:09:45.594Z,82.58
2022-12-16T09:16:10.097Z,82.9
2022-12-16T09:33:09.573Z,82.95
2022-12-16T09:39:32.579Z,82.48
2022-12-16T09:45:52.681Z,82.2
2022-12-16T09:52:18.451Z,82.06
2022-12-16T09:58:35.636Z,81.81
2022-12-16T10:04:58.602Z,81.69
2022-12-16T10:11:18.596Z,80.46
2022-12-16T10:17:41.733Z,80.61
2022-12-16T10:24:01.605Z,81.06
2022-12-16T10:30:24.634Z,80.11
2022-12-16T10:36:44.683Z,79.68
2022-12-16T10:43:07.613Z,79.83
2022-12-16T10:49:27.650Z,79.94
2022-12-16T10:55:50.636Z,80.31
2022-12-16T11:02:10.725Z,79.89
2022-12-16T11:08:33.620Z,79.2
2022-12-16T11:15:20.383Z,78.69
2022-12-16T11:21:17.205Z,78.78
2022-12-16T11:27:36.788Z,78.34
2022-12-16T11:33:59.569Z,78.23
2022-12-16T11:40:19.806Z,78.01
2022-12-16T11:46:42.639Z,77.31
2022-12-16T11:53:02.672Z,76.92
2022-12-16T11:59:25.699Z,76.46
2022-12-16T12:05:45.626Z,76.47
2022-12-16T12:12:08.649Z,76.99
2022-12-16T12:18:28.553Z,76.28
2022-12-16T12:24:56.237Z,76.34
2022-12-16T12:31:11.651Z,76.09
2022-12-16T12:37:34.558Z,75.84
2022-12-16T12:43:54.630Z,74.48
2022-12-16T12:50:17.564Z,73.64
2022-12-16T12:56:37.661Z,73.04
2022-12-16T13:03:00.801Z,73.52
2022-12-16T13:09:20.649Z,72.41
2022-12-16T13:15:43.599Z,73.71
2022-12-16T13:22:03.639Z,74.36
2022-12-16T13:28:26.767Z,74.03
2022-12-16T13:34:46.580Z,73.31
2022-12-16T13:41:09.744Z,73.26
2022-12-16T13:47:29.565Z,73.33
2022-12-16T13:53:52.653Z,73.71
2022-12-16T14:00:12.938Z,74.67
2022-12-16T14:06:35.565Z,74.84
2022-12-16T14:12:55.638Z,75.28
2022-12-16T14:19:18.662Z,75.86
2022-12-16T14:42:06.105Z,76.72
2022-12-16T14:48:25.599Z,77.09
2022-12-16T14:54:48.597Z,77.55
2022-12-16T15:01:13.894Z,77.78
2022-12-16T15:07:31.753Z,77.28
2022-12-16T15:13:51.857Z,78.13
2022-12-16T15:20:14.701Z,78.14
2022-12-16T15:26:34.627Z,78.07
2022-12-16T15:32:57.597Z,78.42
2022-12-16T15:39:17.667Z,78.6
2022-12-16T15:45:40.657Z,78.77
2022-12-16T15:52:00.651Z,78.06
2022-12-16T15:58:23.708Z,78.66
2022-12-16T16:04:43.620Z,79.44
2022-12-16T16:11:06.692Z,81.1
2022-12-16T16:17:26.760Z,83.16
2022-12-16T16:23:49.560Z,85.65
2022-12-16T16:30:09.719Z,86.88
2022-12-16T16:36:32.626Z,87.79
2022-12-16T16:42:52.574Z,88.49
2022-12-16T16:49:15.674Z,89.41
2022-12-16T16:55:35.656Z,89.83
2022-12-16T17:01:58.805Z,90.11
2022-12-16T17:08:18.579Z,90.12
2022-12-16T17:14:41.594Z,90.26
2022-12-16T17:28:18.589Z,90.75
2022-12-16T17:34:38.666Z,90.95
2022-12-16T17:41:01.551Z,91.03
2022-12-16T17:47:21.622Z,91.36
2022-12-16T17:53:44.650Z,91.52
2022-12-16T18:00:04.787Z,91.66
2022-12-16T18:06:27.617Z,91.82
2022-12-16T18:12:47.665Z,91.41
2022-12-16T18:19:10.673Z,91.24
2022-12-16T18:25:30.668Z,91.33
2022-12-16T18:31:53.802Z,91.18
2022-12-16T18:38:16.509Z,90.79
2022-12-16T18:44:36.604Z,90.2
2022-12-16T18:50:56.601Z,90.05
2022-12-16T18:57:19.625Z,89.78
2022-12-16T19:03:39.592Z,89.12
2022-12-16T19:10:02.765Z,88.88
2022-12-16T19:26:09.601Z,89.42
2022-12-16T19:32:32.629Z,89
2022-12-16T19:38:52.583Z,89
2022-12-16T19:45:15.618Z,89.49
2022-12-16T19:51:35.617Z,89.74
2022-12-16T19:57:58.613Z,89.77
2022-12-16T20:04:18.619Z,89.92
2022-12-16T20:10:41.751Z,90.08
2022-12-16T20:17:01.577Z,90.37
2022-12-16T20:23:24.759Z,90.36
2022-12-16T20:29:44.622Z,90.21
2022-12-16T20:36:07.580Z,90.19
2022-12-16T20:42:27.744Z,90
2022-12-16T20:48:50.570Z,89.96
2022-12-16T20:55:10.640Z,89.64
2022-12-16T21:01:33.729Z,89.74
2022-12-16T21:07:53.663Z,89.53
2022-12-16T21:14:16.604Z,89.47
2022-12-16T21:20:36.690Z,89.65
2022-12-16T21:26:59.654Z,89.76
2022-12-16T21:33:20.866Z,90.07
2022-12-16T21:39:43.685Z,90.12
2022-12-16T21:46:03.663Z,89.79
2022-12-16T21:52:26.606Z,89.5
2022-12-16T21:58:46.626Z,89.54
2022-12-16T22:05:09.724Z,89.74
2022-12-16T22:11:29.673Z,89.96
2022-12-16T22:17:57.903Z,89.96
2022-12-16T22:24:12.601Z,89.43
2022-12-16T22:30:35.649Z,89.09
2022-12-16T22:36:56.476Z,88.92
2022-12-16T22:43:18.554Z,89.18
2022-12-16T22:49:38.627Z,89.32
2022-12-16T22:56:02.309Z,88.67
2022-12-16T23:20:15.601Z,89.23
2022-12-16T23:26:35.941Z,89.26
2022-12-16T23:32:58.601Z,89.04
2022-12-16T23:39:18.778Z,88.99
2022-12-16T23:45:41.694Z,89.05
2022-12-16T23:52:01.793Z,89.02
2022-12-16T23:58:24.687Z,88.93
